createdAt,value
2023-04-23T00:00:35.183Z,6.32
2023-04-23T00:03:10.355Z,7.30
2023-04-23T00:05:38.666Z,6.95
2023-04-23T00:08:06.944Z,7.18
2023-04-23T00:10:34.963Z,6.57
2023-04-23T00:13:03.612Z,7.15
2023-04-23T00:15:32.282Z,6.72
2023-04-23T00:18:01.172Z,7.30
2023-04-23T00:20:28.700Z,7.57
2023-04-23T00:22:56.395Z,6.50
2023-04-23T00:25:23.964Z,6.25
2023-04-23T00:27:51.538Z,6.88
2023-04-23T00:30:19.238Z,6.75
2023-04-23T00:32:47.672Z,8.32
2023-04-23T00:35:16.683Z,8.57
2023-04-23T00:37:44.591Z,7.97
2023-04-23T00:40:12.567Z,7.53
2023-04-23T00:42:40.929Z,6.70
2023-04-23T00:45:09.639Z,7.55
2023-04-23T00:47:37.660Z,7.88
2023-04-23T00:50:06.571Z,9.07
2023-04-23T00:52:36.012Z,8.18
2023-04-23T00:55:03.951Z,8.32
2023-04-23T00:57:32.009Z,8.52
2023-04-23T01:00:00.327Z,8.88
2023-04-23T01:02:30.228Z,8.75
2023-04-23T01:05:00.845Z,9.27
2023-04-23T01:07:29.021Z,9.07
2023-04-23T01:09:58.120Z,8.32
2023-04-23T01:12:25.656Z,9.38
2023-04-23T01:14:53.229Z,9.73
2023-04-23T01:17:21.461Z,10.40
2023-04-23T01:19:49.153Z,10.63
2023-04-23T01:22:18.175Z,10.50
2023-04-23T01:24:46.190Z,10.07
2023-04-23T01:27:13.875Z,10.45
2023-04-23T01:29:41.951Z,9.77
2023-04-23T01:32:09.728Z,10.07
2023-04-23T01:34:39.908Z,10.32
2023-04-23T01:37:08.513Z,10.27
2023-04-23T01:39:37.475Z,9.88
2023-04-23T01:42:07.032Z,9.45
2023-04-23T01:44:34.670Z,8.90
2023-04-23T01:47:02.258Z,10.57
2023-04-23T01:49:32.648Z,9.27
2023-04-23T01:52:00.374Z,9.90
2023-04-23T01:54:27.950Z,9.65
2023-04-23T01:56:56.910Z,8.50
2023-04-23T01:59:24.498Z,9.00
2023-04-23T02:01:52.089Z,9.73
2023-04-23T02:04:20.517Z,10.20
2023-04-23T02:06:50.781Z,12.35
2023-04-23T02:09:18.565Z,13.52
2023-04-23T02:11:46.151Z,13.38
2023-04-23T02:14:15.039Z,14.15
2023-04-23T02:16:42.687Z,14.52
2023-04-23T02:19:10.360Z,15.90
2023-04-23T02:21:37.888Z,17.75
2023-04-23T02:24:06.032Z,20.67
2023-04-23T02:26:33.645Z,22.35
2023-04-23T02:29:01.212Z,23.08
2023-04-23T02:31:30.278Z,22.48
2023-04-23T02:33:58.476Z,22.95
2023-04-23T02:36:26.310Z,20.40
2023-04-23T02:38:53.891Z,20.92
2023-04-23T02:41:21.585Z,20.17
2023-04-23T02:43:49.114Z,18.65
2023-04-23T02:46:16.713Z,19.40
2023-04-23T02:48:45.675Z,18.40
2023-04-23T02:51:14.742Z,18.17
2023-04-23T02:53:42.394Z,19.25
2023-04-23T02:56:09.987Z,19.02
2023-04-23T02:58:37.629Z,17.83
2023-04-23T03:01:06.062Z,17.83
2023-04-23T03:03:34.928Z,18.88
2023-04-23T03:06:07.650Z,18.42
2023-04-23T03:08:35.365Z,18.25
2023-04-23T03:11:02.904Z,16.83
2023-04-23T03:13:30.723Z,17.17
2023-04-23T03:15:58.549Z,17.08
2023-04-23T03:18:27.293Z,17.90
2023-04-23T03:20:56.234Z,18.17
2023-04-23T03:23:25.506Z,18.13
2023-04-23T03:25:53.066Z,18.80
2023-04-23T03:28:20.846Z,17.63
2023-04-23T03:30:48.633Z,18.20
2023-04-23T03:33:16.399Z,16.10
2023-04-23T03:35:44.136Z,17.25
2023-04-23T03:38:16.373Z,16.00
2023-04-23T03:40:46.091Z,14.40
2023-04-23T03:43:13.824Z,13.95
2023-04-23T03:46:07.193Z,14.25
2023-04-23T03:48:38.902Z,13.52
2023-04-23T03:51:11.498Z,14.57
2023-04-23T03:53:43.480Z,13.90
2023-04-23T03:56:36.280Z,13.25
2023-04-23T03:59:16.929Z,12.85
2023-04-23T04:01:45.915Z,13.18
2023-04-23T04:04:13.882Z,12.15
2023-04-23T04:06:41.789Z,13.35
2023-04-23T04:09:09.394Z,12.82
2023-04-23T04:11:38.337Z,13.15
2023-04-23T04:14:06.020Z,11.63
2023-04-23T04:16:33.628Z,11.88
2023-04-23T04:19:01.598Z,11.35
2023-04-23T04:21:29.933Z,10.57
2023-04-23T04:23:57.988Z,11.25
2023-04-23T04:26:25.519Z,10.98
2023-04-23T04:28:54.452Z,10.45
2023-04-23T04:31:22.652Z,9.45
2023-04-23T04:33:50.713Z,10.05
2023-04-23T04:36:18.725Z,9.68
2023-04-23T04:38:46.507Z,9.55
2023-04-23T04:41:14.209Z,8.95
2023-04-23T04:43:43.570Z,9.00
2023-04-23T04:46:12.692Z,8.57
2023-04-23T04:48:40.348Z,8.10
2023-04-23T04:51:08.500Z,7.32
2023-04-23T04:53:36.179Z,8.23
2023-04-23T04:56:03.846Z,7.82
2023-04-23T04:58:31.588Z,8.10
2023-04-23T05:00:59.932Z,7.38
2023-04-23T05:03:29.218Z,7.20
2023-04-23T05:05:58.483Z,7.18
2023-04-23T05:08:26.231Z,6.88
2023-04-23T05:10:54.212Z,6.80
2023-04-23T05:13:21.870Z,6.22
2023-04-23T05:15:49.369Z,6.60
2023-04-23T05:18:16.884Z,5.95
2023-04-23T05:20:46.009Z,6.88
2023-04-23T05:23:13.749Z,6.13
2023-04-23T05:25:41.257Z,6.57
2023-04-23T05:28:09.549Z,6.28
2023-04-23T05:30:37.170Z,7.28
2023-04-23T05:33:04.998Z,7.15
2023-04-23T05:35:32.688Z,7.40
2023-04-23T05:38:02.764Z,6.47
2023-04-23T05:40:30.413Z,6.72
2023-04-23T05:42:59.706Z,7.25
2023-04-23T05:45:27.463Z,6.63
2023-04-23T05:47:55.017Z,6.93
2023-04-23T05:50:22.915Z,6.80
2023-04-23T05:52:53.796Z,6.82
2023-04-23T05:55:23.886Z,6.85
2023-04-23T05:57:51.739Z,7.90
2023-04-23T06:00:19.407Z,7.35
2023-04-23T06:02:47.810Z,6.85
2023-04-23T06:05:16.044Z,6.35
2023-04-23T06:07:43.667Z,8.10
2023-04-23T06:10:12.118Z,7.88
2023-04-23T06:12:42.047Z,8.10
2023-04-23T06:15:11.305Z,8.05
2023-04-23T06:17:39.300Z,7.82
2023-04-23T06:20:08.927Z,7.05
2023-04-23T06:22:36.844Z,6.65
2023-04-23T06:25:04.709Z,6.90
2023-04-23T06:27:33.637Z,6.40
2023-04-23T06:30:09.408Z,6.05
2023-04-23T06:32:37.105Z,5.10
2023-04-23T06:35:05.417Z,5.13
2023-04-23T06:37:33.215Z,5.32
2023-04-23T06:40:00.821Z,7.10
2023-04-23T06:42:28.553Z,5.10
2023-04-23T06:45:12.323Z,5.53
2023-04-23T06:47:40.466Z,6.72
2023-04-23T06:50:09.335Z,7.15
2023-04-23T06:52:37.030Z,5.88
2023-04-23T06:55:05.044Z,5.25
2023-04-23T06:57:32.627Z,4.88
2023-04-23T07:00:00.256Z,5.30
2023-04-23T07:02:34.638Z,6.05
2023-04-23T07:05:02.462Z,8.45
2023-04-23T07:07:30.020Z,6.00
2023-04-23T07:09:57.604Z,8.15
2023-04-23T07:12:25.606Z,6.15
2023-04-23T07:14:54.416Z,6.43
2023-04-23T07:17:22.159Z,5.13
2023-04-23T07:19:54.164Z,6.22
2023-04-23T07:22:21.812Z,4.95
2023-04-23T07:24:49.356Z,6.40
2023-04-23T07:27:17.058Z,7.07
2023-04-23T07:29:44.740Z,7.57
2023-04-23T07:32:15.338Z,6.80
2023-04-23T07:34:43.888Z,5.60
2023-04-23T07:37:13.125Z,8.15
2023-04-23T07:39:43.384Z,7.07
2023-04-23T07:42:11.835Z,5.82
2023-04-23T07:44:39.469Z,6.50
2023-04-23T07:47:06.970Z,5.40
2023-04-23T07:49:34.757Z,5.28
2023-04-23T07:52:02.337Z,5.85
2023-04-23T07:54:31.293Z,5.63
2023-04-23T07:56:59.340Z,6.80
2023-04-23T07:59:27.474Z,5.30
2023-04-23T08:01:55.200Z,5.32
2023-04-23T08:04:22.882Z,5.35
2023-04-23T08:06:50.993Z,5.13
2023-04-23T08:09:19.609Z,4.65
2023-04-23T08:11:49.035Z,5.60
2023-04-23T08:14:16.700Z,5.65
2023-04-23T08:16:44.962Z,6.70
2023-04-23T08:19:12.590Z,6.63
2023-04-23T08:21:40.926Z,6.45
2023-04-23T08:24:08.692Z,5.90
2023-04-23T08:26:36.534Z,5.82
2023-04-23T08:29:07.834Z,5.10
2023-04-23T08:31:37.283Z,5.35
2023-04-23T08:34:04.930Z,7.70
2023-04-23T08:36:32.660Z,6.53
2023-04-23T08:39:00.770Z,5.68
2023-04-23T08:41:34.569Z,6.20
2023-04-23T08:44:08.831Z,5.25
2023-04-23T08:46:37.898Z,5.35
2023-04-23T08:49:08.968Z,6.38
2023-04-23T08:51:39.375Z,5.90
2023-04-23T08:54:10.999Z,6.45
2023-04-23T08:56:40.124Z,6.72
2023-04-23T08:59:09.188Z,6.10
2023-04-23T09:01:36.938Z,8.88
2023-04-23T09:04:04.577Z,5.93
2023-04-23T09:06:33.082Z,5.53
2023-04-23T09:09:01.088Z,5.93
2023-04-23T09:11:29.751Z,5.78
2023-04-23T09:13:58.036Z,6.43
2023-04-23T09:16:28.068Z,8.02
2023-04-23T09:18:55.748Z,6.45
2023-04-23T09:21:23.424Z,5.93
2023-04-23T09:23:52.512Z,6.15
2023-04-23T09:26:21.504Z,6.13
2023-04-23T09:28:50.474Z,6.03
2023-04-23T09:31:21.790Z,7.05
2023-04-23T09:33:55.224Z,7.13
2023-04-23T09:36:26.236Z,6.57
2023-04-23T09:38:57.621Z,7.07
2023-04-23T09:41:26.013Z,6.60
2023-04-23T09:43:57.773Z,8.48
2023-04-23T09:46:35.805Z,7.95
2023-04-23T09:49:07.724Z,7.05
2023-04-23T09:51:37.515Z,6.80
2023-04-23T09:54:05.913Z,7.40
2023-04-23T09:56:33.643Z,9.25
2023-04-23T09:59:01.313Z,11.43
2023-04-23T10:01:30.442Z,8.68
2023-04-23T10:03:58.380Z,8.27
2023-04-23T10:06:44.184Z,8.52
2023-04-23T10:09:17.572Z,7.97
2023-04-23T10:11:45.646Z,8.48
2023-04-23T10:14:13.871Z,10.02
2023-04-23T10:16:48.970Z,9.32
2023-04-23T10:19:20.319Z,9.82
2023-04-23T10:21:56.159Z,9.93
2023-04-23T10:24:30.594Z,8.98
2023-04-23T10:27:02.147Z,9.00
2023-04-23T10:29:31.082Z,10.38
2023-04-23T10:32:00.718Z,10.82
2023-04-23T10:34:29.460Z,11.07
2023-04-23T10:37:00.485Z,10.77
2023-04-23T10:39:31.371Z,10.50
2023-04-23T10:42:00.617Z,10.45
2023-04-23T10:44:57.362Z,10.85
2023-04-23T10:47:22.896Z,11.23
2023-04-23T10:49:51.586Z,11.10
2023-04-23T10:52:24.417Z,10.57
2023-04-23T10:54:59.923Z,10.77
2023-04-23T10:57:27.832Z,11.27
2023-04-23T10:59:58.625Z,13.38
2023-04-23T11:02:26.627Z,13.57
2023-04-23T11:04:56.917Z,12.45
2023-04-23T11:07:32.026Z,10.68
2023-04-23T11:10:00.781Z,11.35
2023-04-23T11:12:34.863Z,11.75
2023-04-23T11:15:11.756Z,12.73
2023-04-23T11:18:01.750Z,12.63
2023-04-23T11:20:29.539Z,10.55
2023-04-23T11:22:58.391Z,12.60
2023-04-23T11:25:27.769Z,9.50
2023-04-23T11:27:58.185Z,10.02
2023-04-23T11:30:27.032Z,7.97
2023-04-23T11:32:56.622Z,8.10
2023-04-23T11:35:28.297Z,8.02
2023-04-23T11:37:56.406Z,7.10
2023-04-23T11:40:25.806Z,9.60
2023-04-23T11:42:55.431Z,7.72
2023-04-23T11:45:24.563Z,7.55
2023-04-23T11:47:55.958Z,10.05
2023-04-23T11:50:25.788Z,8.20
2023-04-23T11:52:53.811Z,6.82
2023-04-23T11:55:21.699Z,7.68
2023-04-23T11:57:52.744Z,6.32
2023-04-23T12:00:22.610Z,7.25
2023-04-23T12:02:55.113Z,6.82
2023-04-23T12:05:23.715Z,6.90
2023-04-23T12:07:52.703Z,5.78
2023-04-23T12:10:21.459Z,5.18
2023-04-23T12:12:54.161Z,5.85
2023-04-23T12:15:22.038Z,5.75
2023-04-23T12:17:51.140Z,5.70
2023-04-23T12:20:21.019Z,6.57
2023-04-23T12:22:49.158Z,5.80
2023-04-23T12:25:17.115Z,5.15
2023-04-23T12:27:46.180Z,4.65
2023-04-23T12:30:15.444Z,5.28
2023-04-23T12:32:43.088Z,6.03
2023-04-23T12:35:11.381Z,4.40
2023-04-23T12:37:39.104Z,5.20
2023-04-23T12:40:08.094Z,4.75
2023-04-23T12:42:36.987Z,3.95
2023-04-23T12:45:10.802Z,3.60
2023-04-23T12:47:39.862Z,4.35
2023-04-23T12:50:08.625Z,3.22
2023-04-23T12:52:36.191Z,3.70
2023-04-23T12:55:04.967Z,4.05
2023-04-23T12:57:32.767Z,3.80
2023-04-23T13:00:00.571Z,4.13
2023-04-23T13:02:28.282Z,3.75
2023-04-23T13:05:00.853Z,3.88
2023-04-23T13:07:28.838Z,3.80
2023-04-23T13:09:57.168Z,4.43
2023-04-23T13:12:24.942Z,3.47
2023-04-23T13:14:52.577Z,4.10
2023-04-23T13:17:20.381Z,3.72
2023-04-23T13:19:48.080Z,3.30
2023-04-23T13:22:17.099Z,3.30
2023-04-23T13:24:44.801Z,3.22
2023-04-23T13:27:12.533Z,2.92
2023-04-23T13:29:40.877Z,3.25
2023-04-23T13:32:08.733Z,3.10
2023-04-23T13:34:36.452Z,3.80
2023-04-23T13:37:05.784Z,3.58
2023-04-23T13:39:34.702Z,3.78
2023-04-23T13:42:09.482Z,4.00
2023-04-23T13:44:37.675Z,3.47
2023-04-23T13:47:05.363Z,4.05
2023-04-23T13:49:33.262Z,3.60
2023-04-23T13:52:04.364Z,4.10
2023-04-23T13:54:32.052Z,3.53
2023-04-23T13:57:01.224Z,3.13
2023-04-23T13:59:28.778Z,3.80
2023-04-23T14:01:56.378Z,3.03
2023-04-23T14:04:24.438Z,4.03
2023-04-23T14:06:52.124Z,3.45
2023-04-23T14:09:22.074Z,3.28
2023-04-23T14:11:49.783Z,5.05
2023-04-23T14:14:19.157Z,3.60
2023-04-23T14:16:46.843Z,3.60
2023-04-23T14:19:14.453Z,2.70
2023-04-23T14:21:42.269Z,2.90
2023-04-23T14:24:17.117Z,2.90
2023-04-23T14:26:49.676Z,5.47
2023-04-23T14:29:26.332Z,5.20
2023-04-23T14:31:53.946Z,6.55
2023-04-23T14:34:22.072Z,7.50
2023-04-23T14:36:49.887Z,8.63
2023-04-23T14:39:17.653Z,9.07
2023-04-23T14:41:45.293Z,9.88
2023-04-23T14:44:13.176Z,10.10
2023-04-23T14:46:42.131Z,11.10
2023-04-23T14:49:09.697Z,10.90
2023-04-23T14:51:37.802Z,11.02
2023-04-23T14:54:05.954Z,9.88
2023-04-23T14:56:33.541Z,9.48
2023-04-23T14:59:01.130Z,7.85
2023-04-23T15:01:29.047Z,5.93
2023-04-23T15:03:58.165Z,5.25
2023-04-23T15:06:25.782Z,5.60
2023-04-23T15:08:53.509Z,5.78
2023-04-23T15:11:21.332Z,6.82
2023-04-23T15:13:57.758Z,7.20
2023-04-23T15:16:47.682Z,5.13
2023-04-23T15:19:18.784Z,4.75
2023-04-23T15:21:47.315Z,5.40
2023-04-23T15:24:15.256Z,4.90
2023-04-23T15:26:43.245Z,3.60
2023-04-23T15:29:11.132Z,3.20
2023-04-23T15:31:39.125Z,2.90
2023-04-23T15:34:08.606Z,2.90
2023-04-23T15:36:38.494Z,3.03
2023-04-23T15:39:07.386Z,3.20
2023-04-23T15:41:39.368Z,3.10
2023-04-23T15:44:10.686Z,3.60
2023-04-23T15:46:38.499Z,6.28
2023-04-23T15:49:06.094Z,5.30
2023-04-23T15:51:33.886Z,4.07
2023-04-23T15:54:02.896Z,3.97
2023-04-23T15:56:30.551Z,4.43
2023-04-23T15:58:58.142Z,4.28
2023-04-23T16:01:27.471Z,4.78
2023-04-23T16:04:09.538Z,4.45
2023-04-23T16:06:38.287Z,4.43
2023-04-23T16:09:07.993Z,5.38
2023-04-23T16:11:36.112Z,4.38
2023-04-23T16:14:04.498Z,4.15
2023-04-23T16:16:32.217Z,4.20
2023-04-23T16:19:00.039Z,4.00
2023-04-23T16:21:28.076Z,4.97
2023-04-23T16:23:55.880Z,5.00
2023-04-23T16:26:25.360Z,5.18
2023-04-23T16:29:05.847Z,5.65
2023-04-23T16:31:41.010Z,5.15
2023-04-23T16:34:08.956Z,5.78
2023-04-23T16:36:36.544Z,7.40
2023-04-23T16:39:04.292Z,7.65
2023-04-23T16:41:33.542Z,7.15
2023-04-23T16:44:01.156Z,8.45
2023-04-23T16:46:30.860Z,8.30
2023-04-23T16:48:58.670Z,9.68
2023-04-23T16:51:26.379Z,9.73
2023-04-23T16:53:54.170Z,10.75
2023-04-23T16:56:22.080Z,11.73
2023-04-23T16:58:51.079Z,11.95
2023-04-23T17:01:19.053Z,11.20
2023-04-23T17:03:46.836Z,12.45
2023-04-23T17:06:25.649Z,11.50
2023-04-23T17:08:53.339Z,11.07
2023-04-23T17:11:20.967Z,12.52
2023-04-23T17:13:48.587Z,13.20
2023-04-23T17:16:17.795Z,14.00
2023-04-23T17:18:45.978Z,13.70
2023-04-23T17:21:13.739Z,14.32
2023-04-23T17:23:41.324Z,14.27
2023-04-23T17:26:09.162Z,14.45
2023-04-23T17:28:36.821Z,14.93
2023-04-23T17:31:04.626Z,18.05
2023-04-23T17:33:33.689Z,17.08
2023-04-23T17:36:01.382Z,16.38
2023-04-23T17:38:29.344Z,15.65
2023-04-23T17:40:57.611Z,15.20
2023-04-23T17:43:25.216Z,15.40
2023-04-23T17:45:52.987Z,15.80
2023-04-23T17:48:22.969Z,13.95
2023-04-23T17:50:54.314Z,15.50
2023-04-23T17:53:22.034Z,13.85
2023-04-23T17:55:49.914Z,13.27
2023-04-23T17:58:19.149Z,13.63
2023-04-23T18:00:47.004Z,14.02
2023-04-23T18:03:18.656Z,12.82
2023-04-23T18:05:46.351Z,13.07
2023-04-23T18:08:17.116Z,13.55
2023-04-23T18:10:45.811Z,13.63
2023-04-23T18:13:13.650Z,12.88
2023-04-23T18:15:42.058Z,11.57
2023-04-23T18:18:10.070Z,12.95
2023-04-23T18:20:38.950Z,12.88
2023-04-23T18:23:07.980Z,13.13
2023-04-23T18:25:37.084Z,12.25
2023-04-23T18:28:04.621Z,11.27
2023-04-23T18:30:32.308Z,12.60
2023-04-23T18:33:07.631Z,13.50
2023-04-23T18:35:35.378Z,12.60
2023-04-23T18:38:10.903Z,15.65
2023-04-23T18:40:39.810Z,13.80
2023-04-23T18:43:07.636Z,14.95
2023-04-23T18:45:35.832Z,14.38
2023-04-23T18:48:18.655Z,15.65
2023-04-23T18:50:50.635Z,14.20
2023-04-23T18:53:19.093Z,13.90
2023-04-23T18:55:49.730Z,13.23
2023-04-23T18:58:17.687Z,13.50
2023-04-23T19:00:45.341Z,13.13
2023-04-23T19:03:25.251Z,13.30
2023-04-23T19:05:54.371Z,14.50
2023-04-23T19:08:22.693Z,14.10
2023-04-23T19:10:51.872Z,15.63
2023-04-23T19:13:21.892Z,13.73
2023-04-23T19:15:50.314Z,13.48
2023-04-23T19:18:18.192Z,13.35
2023-04-23T19:20:45.996Z,13.80
2023-04-23T19:23:13.596Z,13.88
2023-04-23T19:25:41.165Z,13.32
2023-04-23T19:28:10.066Z,12.70
2023-04-23T19:30:37.943Z,12.95
2023-04-23T19:33:05.743Z,11.68
2023-04-23T19:35:33.555Z,12.20
2023-04-23T19:38:01.141Z,11.93
2023-04-23T19:40:28.774Z,11.68
2023-04-23T19:42:56.576Z,11.65
2023-04-23T19:45:26.755Z,11.18
2023-04-23T19:47:54.569Z,11.60
2023-04-23T19:50:22.338Z,11.63
2023-04-23T19:52:50.018Z,11.90
2023-04-23T19:55:18.170Z,11.60
2023-04-23T19:57:46.069Z,10.80
2023-04-23T20:00:14.852Z,10.15
2023-04-23T20:02:44.121Z,10.63
2023-04-23T20:05:11.821Z,10.65
2023-04-23T20:07:39.593Z,10.82
2023-04-23T20:10:08.410Z,10.80
2023-04-23T20:12:36.134Z,10.85
2023-04-23T20:15:04.022Z,10.85
2023-04-23T20:17:31.716Z,9.43
2023-04-23T20:20:01.901Z,10.15
2023-04-23T20:22:30.048Z,10.30
2023-04-23T20:24:58.824Z,10.10
2023-04-23T20:27:26.838Z,9.50
2023-04-23T20:29:54.607Z,10.18
2023-04-23T20:32:22.162Z,10.25
2023-04-23T20:34:49.744Z,9.32
2023-04-23T20:37:21.403Z,8.40
2023-04-23T20:39:49.252Z,9.45
2023-04-23T20:42:16.985Z,9.07
2023-04-23T20:44:46.953Z,9.10
2023-04-23T20:47:16.245Z,8.07
2023-04-23T20:49:44.077Z,8.73
2023-04-23T20:52:12.292Z,8.88
2023-04-23T20:54:41.514Z,7.40
2023-04-23T20:57:09.145Z,9.00
2023-04-23T20:59:36.804Z,7.80
2023-04-23T21:02:06.428Z,7.57
2023-04-23T21:04:34.110Z,7.88
2023-04-23T21:07:02.258Z,7.68
2023-04-23T21:09:29.913Z,7.88
2023-04-23T21:11:59.276Z,7.57
2023-04-23T21:14:26.856Z,7.97
2023-04-23T21:16:56.228Z,6.75
2023-04-23T21:19:23.832Z,7.22
2023-04-23T21:21:51.399Z,7.85
2023-04-23T21:24:19.080Z,7.40
2023-04-23T21:26:46.806Z,7.18
2023-04-23T21:29:15.823Z,6.13
2023-04-23T21:31:45.997Z,6.47
2023-04-23T21:34:15.144Z,6.38
2023-04-23T21:36:44.538Z,6.40
2023-04-23T21:39:13.218Z,6.13
2023-04-23T21:41:41.087Z,6.07
2023-04-23T21:44:09.144Z,5.72
2023-04-23T21:46:38.259Z,5.28
2023-04-23T21:49:05.926Z,5.80
2023-04-23T21:51:37.066Z,5.03
2023-04-23T21:54:05.537Z,6.00
2023-04-23T21:56:33.693Z,5.15
2023-04-23T21:59:01.364Z,5.63
2023-04-23T22:01:29.035Z,5.13
2023-04-23T22:03:58.857Z,5.63
2023-04-23T22:06:27.634Z,6.15
2023-04-23T22:08:56.093Z,5.60
2023-04-23T22:11:23.782Z,5.70
2023-04-23T22:13:51.370Z,5.43
2023-04-23T22:16:28.034Z,5.97
2023-04-23T22:18:58.240Z,6.13
2023-04-23T22:21:25.999Z,6.03
2023-04-23T22:23:53.632Z,5.35
2023-04-23T22:26:21.809Z,5.90
2023-04-23T22:28:49.425Z,5.60
2023-04-23T22:31:17.253Z,5.95
2023-04-23T22:33:45.099Z,6.32
2023-04-23T22:36:14.155Z,6.22
2023-04-23T22:38:41.984Z,5.95
2023-04-23T22:41:09.695Z,6.38
2023-04-23T22:43:37.512Z,5.82
2023-04-23T22:46:05.479Z,6.22
2023-04-23T22:48:33.310Z,5.40
2023-04-23T22:51:01.739Z,6.35
2023-04-23T22:53:32.268Z,6.10
2023-04-23T22:55:59.881Z,5.90
2023-04-23T22:58:27.524Z,5.93
2023-04-23T23:00:55.447Z,6.50
2023-04-23T23:03:23.235Z,5.70
2023-04-23T23:05:51.039Z,6.70
2023-04-23T23:08:18.624Z,6.10
2023-04-23T23:10:47.640Z,6.38
2023-04-23T23:13:15.390Z,6.57
2023-04-23T23:15:43.055Z,6.88
2023-04-23T23:18:11.323Z,7.05
2023-04-23T23:20:40.348Z,6.38
2023-04-23T23:23:07.954Z,7.13
2023-04-23T23:25:38.176Z,7.10
2023-04-23T23:28:07.331Z,6.78
2023-04-23T23:30:34.981Z,6.80
2023-04-23T23:33:02.719Z,7.63
2023-04-23T23:35:30.677Z,7.60
2023-04-23T23:37:58.315Z,7.50
2023-04-23T23:40:25.893Z,7.72
2023-04-23T23:42:53.422Z,7.82
2023-04-23T23:45:22.433Z,8.05
2023-04-23T23:47:50.291Z,7.80
2023-04-23T23:50:18.381Z,7.53
2023-04-23T23:52:45.937Z,7.20
2023-04-23T23:55:13.665Z,7.78
2023-04-23T23:57:41.294Z,7.30
